Bowie: Past 24 Hour Conditions

 

Victoria Int'l Airport

12:00 PM PDT 21 August 2014
This table is a summary of hourly weather conditions for the past 24 hours.
Date / Time
(PDT)
Wind(knots) Conditions Visibility(km) Pressure(kPa) Air tempC) Relative humidity(%) Dew pointC)
21 August 2014
12:00 SE 11 gust 18 Partly Cloudy 48 101.7 17 69 11
11:00 ESE 11 Partly Cloudy 48 101.7 16 74 11
10:00 ESE 5 Partly Cloudy 48 101.7 15 79 11
9:00 E 6 Partly Cloudy 48 101.7 14 81 11
8:00 ENE 3 Partly Cloudy 48 101.7 13 88 11
7:00 SE 3 Mainly Sunny 48 101.6 12 92 11
6:00 N 1 Partly Cloudy 48 101.6 10 94 9
5:00 calm Partly Cloudy 48 101.6 11 93 10
4:00 S 2 Mainly Clear 48 101.6 11 96 10
3:00 SSE 3 Mainly Clear 48 101.6 11 92 10
2:00 N 1 Mainly Clear 48 101.6 11 94 11
1:00 calm Mainly Clear 48 101.5 12 92 11
0:00 E 3 Mainly Clear 48 101.5 13 87 11
20 August 2014
23:00 E 3 Clear 48 101.5 13 89 12
22:00 calm Mainly Clear 48 101.4 14 85 12
21:00 SE 6 Mainly Clear 48 101.4 14 84 12
20:00 ESE 8 Mainly Sunny 48 101.3 17 72 12
19:00 ESE 13 Mainly Sunny 48 101.3 17 74 12
18:00 SE 13 Mainly Sunny 48 101.4 18 70 12
17:00 ESE 11 Mainly Sunny 48 101.4 19 65 12
16:00 ESE 9 Mainly Sunny 48 101.4 19 62 12
15:00 ESE 10 Mostly Cloudy 48 101.5 19 60 11
14:00 SE 12 Mostly Cloudy 32 101.5 18 70 12
13:00 SE 9 Partly Cloudy 32 101.5 18 66 11
12:00 SE 11 Partly Cloudy 32 101.5 18 67 12
 
Map of Pacific - South Coast marine weather areas Tsawwassen Ferry Terminal South Nomad - 46036 Sentry Shoal - 46131 South Brooks - 46132 Halibut Bank - 46146 South Moresby - 46147 South Hecate Strait - 46185 West Sea Otter - 46204 La Perouse Bank - 46206 East Dellwood - 46207 Discovery Island Esquimalt Harbour Kelp Reefs Malahat Race Rocks Lightstation Saturna Island Sheringham Point University of Victoria Victoria Gonzales Victoria Int'l Airport Ballenas Islands Campbell River Airport Comox Airport Entrance Island Fanny Island Nanaimo Airport Port Hardy Airport Sisters Islets Estevan Point Sartine Island Solander Island Tofino Airport Grief Point Powell River Airport Sechelt Cape St.James Bella Bella Airport Bella Coola Airport Cathedral Point Herbert Island Point Atkinson Sand Heads Lightstation Vancouver Harbour Vancouver Int'l Airport West Vancouver Port Alberni Howe Sound - Pam Rocks Squamish Airport